Time;durP1;ratioP1;P1;durP2;ratioP2;P2;SDS_P1;SDS_P2;PMS_P1;PMS_P2;Temp;Humidity;BMP_temperature;BMP_pressure;BME280_temperature;BME280_humidity;BME280_pressure;Samples;Min_cycle;Max_cycle;Signal;HPM_P1;HPM_P2
2023/04/15 00:00:16;;;;;;;4.47;1.75;;;;;;;1.84;29.46;147782.66;5100413;28;20049;-65
2023/04/15 00:02:43;;;;;;;3.70;1.27;;;;;;;1.76;29.48;147762.31;5095192;28;20459;-65
2023/04/15 00:05:09;;;;;;;4.45;1.38;;;;;;;1.86;29.45;147787.78;5099133;28;20320;-65
2023/04/15 00:07:35;;;;;;;2.35;1.60;;;;;;;1.60;29.39;147724.09;5084559;28;20046;-64
2023/04/15 00:10:01;;;;;;;1.83;1.35;;;;;;;1.44;29.55;147683.34;5084551;28;20340;-66
2023/04/15 00:12:27;;;;;;;3.20;1.42;;;;;;;1.38;30.05;147669.34;5100878;28;20083;-65
2023/04/15 00:14:53;;;;;;;2.53;1.30;;;;;;;1.71;29.98;147750.81;5093081;28;20260;-66
2023/04/15 00:17:19;;;;;;;1.80;1.35;;;;;;;1.41;30.01;147677.03;5091325;28;20346;-65
2023/04/15 00:19:44;;;;;;;4.30;1.63;;;;;;;1.57;30.29;147715.19;5102633;28;20035;-64
2023/04/15 00:22:11;;;;;;;1.70;1.33;;;;;;;1.57;29.93;147716.47;5084224;28;20029;-65
2023/04/15 00:24:37;;;;;;;2.45;1.30;;;;;;;1.42;30.33;147679.53;5100845;28;20463;-64
2023/04/15 00:27:03;;;;;;;2.75;1.75;;;;;;;1.57;29.83;147715.19;5091384;28;20142;-63
2023/04/15 00:29:29;;;;;;;2.22;1.52;;;;;;;1.54;30.02;147710.09;5092484;28;20027;-64
2023/04/15 00:31:56;;;;;;;2.63;1.65;;;;;;;1.42;30.36;147679.53;5094724;28;20032;-64
2023/04/15 00:34:22;;;;;;;2.95;1.58;;;;;;;1.23;30.22;147632.47;5083955;28;20044;-65
2023/04/15 00:36:49;;;;;;;1.75;1.30;;;;;;;1.31;30.64;147651.53;5083894;28;20028;-65
2023/04/15 00:39:15;;;;;;;4.05;1.77;;;;;;;1.33;30.06;147656.66;5098572;28;20091;-63
2023/04/15 00:41:41;;;;;;;2.88;1.40;;;;;;;1.17;30.66;147617.22;5094102;28;20032;-64
2023/04/15 00:44:08;;;;;;;1.63;1.38;;;;;;;1.11;30.43;147603.19;5090631;28;20031;-64
2023/04/15 00:46:40;;;;;;;2.05;1.60;;;;;;;1.26;30.13;147638.84;5104497;28;20312;-65
2023/04/15 00:49:06;;;;;;;1.85;1.40;;;;;;;1.22;29.81;147629.91;5084070;28;20035;-63
2023/04/15 00:51:35;;;;;;;2.60;1.42;;;;;;;0.99;30.70;147573.91;5083490;28;20032;-65
2023/04/15 00:54:05;;;;;;;4.28;1.80;;;;;;;1.20;30.25;147626.09;5083491;28;20028;-65
2023/04/15 00:56:34;;;;;;;3.30;1.90;;;;;;;1.05;30.18;147587.91;5090711;28;20327;-64
2023/04/15 00:59:01;;;;;;;1.83;1.63;;;;;;;1.20;30.49;147624.84;5103758;28;20028;-64
2023/04/15 01:01:28;;;;;;;3.13;1.85;;;;;;;1.01;30.63;147579.03;5099808;28;20025;-64
2023/04/15 01:03:57;;;;;;;3.05;1.38;;;;;;;0.94;30.80;147561.22;5103338;28;20055;-64
2023/04/15 01:06:23;;;;;;;2.42;1.50;;;;;;;1.00;31.00;147576.47;5082077;28;20028;-64
2023/04/15 01:08:49;;;;;;;2.78;1.60;;;;;;;0.74;30.87;147510.28;5083390;28;20324;-64
2023/04/15 01:11:16;;;;;;;2.72;1.60;;;;;;;0.91;31.13;147552.28;5089340;28;20074;-63
2023/04/15 01:13:42;;;;;;;2.45;1.85;;;;;;;0.69;30.60;147500.09;5101179;28;20024;-64
2023/04/15 01:16:08;;;;;;;2.80;1.40;;;;;;;0.95;31.15;147562.47;5083283;28;20031;-64
2023/04/15 01:18:36;;;;;;;2.20;1.88;;;;;;;0.86;31.18;147542.09;5100123;28;20031;-65
2023/04/15 01:21:03;;;;;;;3.75;1.73;;;;;;;1.00;30.89;147576.47;5090882;28;20099;-64
2023/04/15 01:23:29;;;;;;;3.00;2.20;;;;;;;0.88;30.52;147544.66;5090944;28;20051;-64
2023/04/15 01:25:57;;;;;;;2.63;1.70;;;;;;;0.92;31.19;147554.84;5105343;28;20032;-64
2023/04/15 01:28:23;;;;;;;4.55;1.80;;;;;;;0.85;31.31;147539.53;5103459;28;20020;-64
2023/04/15 01:30:48;;;;;;;2.97;1.60;;;;;;;0.75;30.95;147514.09;5084802;28;20024;-64
2023/04/15 01:33:14;;;;;;;2.85;1.70;;;;;;;0.85;30.86;147538.28;5089222;28;20067;-64
2023/04/15 01:35:59;;;;;;;4.15;2.00;;;;;;;0.82;31.02;147531.91;5083422;28;20371;-64
2023/04/15 01:38:26;;;;;;;4.00;2.20;;;;;;;0.65;31.35;147489.94;5083303;28;20024;-63
2023/04/15 01:40:52;;;;;;;2.65;2.10;;;;;;;0.83;31.28;147533.22;5086054;28;20021;-64
2023/04/15 01:43:19;;;;;;;4.35;2.67;;;;;;;0.86;31.31;147540.84;5103594;28;20046;-65
2023/04/15 01:45:46;;;;;;;3.28;2.10;;;;;;;0.72;32.11;147505.22;5084841;28;20356;-64
2023/04/15 01:48:13;;;;;;;3.63;2.17;;;;;;;0.67;31.36;147495.03;5096057;28;20253;-64
2023/04/15 01:50:40;;;;;;;4.75;2.20;;;;;;;0.58;31.33;147470.88;5083161;28;20055;-63
2023/04/15 01:53:07;;;;;;;3.20;1.98;;;;;;;0.58;31.41;147472.13;5087750;28;20291;-64
2023/04/15 01:55:34;;;;;;;4.05;2.10;;;;;;;0.51;32.06;147454.31;5103359;28;20071;-65
2023/04/15 01:58:01;;;;;;;3.92;1.70;;;;;;;0.61;31.72;147478.50;5082863;28;20257;-65
2023/04/15 02:00:28;;;;;;;5.57;2.47;;;;;;;0.48;32.15;147447.94;5098465;28;20145;-64
2023/04/15 02:02:55;;;;;;;2.78;1.77;;;;;;;0.52;31.99;147456.88;5092284;28;20051;-64
2023/04/15 02:05:23;;;;;;;3.63;2.15;;;;;;;0.56;31.70;147465.81;5089530;28;20044;-64
2023/04/15 02:07:50;;;;;;;2.83;1.60;;;;;;;0.57;31.92;147468.31;5097500;28;20317;-65
2023/04/15 02:10:17;;;;;;;2.38;1.60;;;;;;;0.54;31.65;147460.69;5102933;28;20068;-63
2023/04/15 02:12:44;;;;;;;4.35;2.10;;;;;;;0.55;32.40;147463.25;5085237;28;20063;-65
2023/04/15 02:15:10;;;;;;;2.70;1.67;;;;;;;0.56;31.58;147465.81;5096071;28;20051;-63
2023/04/15 02:17:37;;;;;;;3.65;1.60;;;;;;;0.61;32.00;147478.50;5097794;28;20320;-64
2023/04/15 02:20:05;;;;;;;2.65;1.88;;;;;;;0.51;31.28;147455.63;5090386;28;20044;-64
2023/04/15 02:22:32;;;;;;;1.85;1.52;;;;;;;0.54;32.39;147461.94;5106981;28;20048;-65
2023/04/15 02:24:58;;;;;;;2.72;1.65;;;;;;;0.67;32.45;147495.03;5086802;28;20044;-66
2023/04/15 02:27:27;;;;;;;1.50;1.40;;;;;;;0.54;31.77;147460.69;5104293;28;20051;-64
2023/04/15 02:29:53;;;;;;;2.05;1.40;;;;;;;0.55;32.11;147464.50;5086387;28;20043;-64
2023/04/15 02:32:23;;;;;;;3.90;1.77;;;;;;;0.44;31.94;147437.81;5088601;28;20312;-63
2023/04/15 02:34:50;;;;;;;3.22;1.55;;;;;;;0.41;32.34;147430.16;5088350;28;20055;-63
2023/04/15 02:37:19;;;;;;;1.95;1.58;;;;;;;0.46;31.82;147442.88;5106489;28;20202;-62
2023/04/15 02:39:46;;;;;;;3.10;1.80;;;;;;;0.45;32.32;147440.31;5088611;28;20047;-63
2023/04/15 02:42:12;;;;;;;4.50;1.45;;;;;;;0.20;32.59;147378.03;5099279;28;20083;-63
2023/04/15 02:44:39;;;;;;;2.92;1.40;;;;;;;0.23;32.38;147384.38;5097593;28;20047;-64
2023/04/15 02:47:06;;;;;;;2.97;1.85;;;;;;;0.21;31.87;147380.56;5090317;28;20056;-64
2023/04/15 02:49:33;;;;;;;2.10;1.67;;;;;;;0.31;32.51;147404.72;5094216;28;20354;-64
2023/04/15 02:52:00;;;;;;;2.50;1.88;;;;;;;0.32;32.12;147408.53;5086172;28;20071;-67
2023/04/15 02:54:27;;;;;;;2.55;1.50;;;;;;;0.25;31.79;147389.47;5101098;28;20051;-65
2023/04/15 02:56:55;;;;;;;2.22;1.70;;;;;;;0.30;31.86;147402.16;5095767;28;20044;-64
2023/04/15 02:59:21;;;;;;;2.03;1.52;;;;;;;0.46;31.96;147442.88;5085664;28;20048;-64
2023/04/15 03:01:48;;;;;;;4.00;1.60;;;;;;;0.31;32.49;147404.72;5087247;28;20215;-64
2023/04/15 03:04:15;;;;;;;2.80;1.75;;;;;;;0.52;31.79;147456.88;5105908;28;20059;-65
2023/04/15 03:06:42;;;;;;;1.90;1.52;;;;;;;0.35;32.70;147414.91;5088487;28;20252;-64
2023/04/15 03:09:09;;;;;;;3.60;1.83;;;;;;;0.60;32.18;147475.94;5098268;28;20048;-64
2023/04/15 03:11:39;;;;;;;5.13;2.15;;;;;;;0.51;32.12;147455.63;5097932;28;20040;-64
2023/04/15 03:14:06;;;;;;;2.90;1.65;;;;;;;0.51;32.54;147454.31;5089259;28;20050;-65
2023/04/15 03:16:33;;;;;;;2.47;1.67;;;;;;;0.38;31.88;147421.25;5106110;28;20066;-64
2023/04/15 03:18:59;;;;;;;3.78;1.70;;;;;;;0.36;32.88;147416.16;5086259;28;20056;-64
2023/04/15 03:21:26;;;;;;;5.93;2.10;;;;;;;0.55;32.33;147463.25;5100191;28;20256;-65
2023/04/15 03:23:53;;;;;;;2.85;2.03;;;;;;;0.39;32.15;147425.06;5095399;28;20249;-65
2023/04/15 03:26:29;;;;;;;2.25;1.80;;;;;;;0.34;32.63;147412.34;5090664;28;20269;-65
2023/04/15 03:28:56;;;;;;;4.47;1.67;;;;;;;0.18;32.73;147372.94;5102287;28;20100;-66
2023/04/15 03:31:23;;;;;;;4.88;2.10;;;;;;;0.46;32.00;147442.88;5090520;28;20043;-64
2023/04/15 03:33:50;;;;;;;2.22;1.77;;;;;;;0.55;32.16;147463.25;5087426;28;20324;-65
2023/04/15 03:36:17;;;;;;;6.20;1.90;;;;;;;0.50;32.72;147453.06;5084955;28;20059;-66
2023/04/15 03:38:44;;;;;;;3.58;1.83;;;;;;;0.33;31.82;147409.84;5093952;28;20055;-64
2023/04/15 03:41:11;;;;;;;3.40;1.50;;;;;;;0.37;31.83;147418.72;5100837;28;20044;-64
2023/04/15 03:43:38;;;;;;;5.47;1.40;;;;;;;0.27;33.15;147395.84;5085238;28;20048;-63
2023/04/15 03:46:05;;;;;;;5.43;2.40;;;;;;;0.41;32.50;147428.88;5085172;28;20051;-64
2023/04/15 03:48:32;;;;;;;3.95;1.67;;;;;;;0.56;32.81;147467.06;5096990;28;20063;-64
2023/04/15 03:50:59;;;;;;;4.68;2.00;;;;;;;0.75;31.74;147514.09;5095846;28;20258;-65
2023/04/15 03:53:26;;;;;;;1.92;1.50;;;;;;;0.37;31.97;147420.00;5099111;28;20075;-64
2023/04/15 03:55:53;;;;;;;2.30;1.60;;;;;;;0.51;32.16;147455.63;5086538;28;20044;-64
2023/04/15 03:58:20;;;;;;;4.30;1.65;;;;;;;0.59;32.76;147474.69;5105156;28;20070;-64
2023/04/15 04:00:47;;;;;;;1.92;1.67;;;;;;;0.89;31.67;147547.22;5087474;28;20052;-64
2023/04/15 04:03:13;;;;;;;5.15;1.67;;;;;;;0.83;32.45;147533.22;5097607;28;20043;-64
2023/04/15 04:05:40;;;;;;;2.38;1.73;;;;;;;0.84;32.02;147535.72;5096763;28;20044;-64
2023/04/15 04:08:07;;;;;;;2.13;1.67;;;;;;;0.80;31.79;147525.59;5083627;28;20056;-65
2023/04/15 04:10:34;;;;;;;2.50;1.75;;;;;;;0.68;31.90;147496.28;5084937;28;20063;-64
2023/04/15 04:13:01;;;;;;;3.55;1.60;;;;;;;0.90;32.29;147549.72;5084872;28;20058;-64
2023/04/15 04:15:28;;;;;;;2.88;1.67;;;;;;;0.83;31.96;147534.47;5084567;28;20040;-63
2023/04/15 04:17:55;;;;;;;5.25;1.60;;;;;;;0.81;32.01;147529.41;5093072;28;20051;-64
2023/04/15 04:20:21;;;;;;;3.15;1.50;;;;;;;0.79;31.96;147523.03;5104453;28;20035;-64
2023/04/15 04:22:49;;;;;;;3.30;1.60;;;;;;;0.71;31.45;147502.66;5103867;28;20055;-64
2023/04/15 04:25:16;;;;;;;3.80;1.70;;;;;;;0.64;31.63;147486.13;5084174;28;20336;-64
2023/04/15 04:27:44;;;;;;;5.95;1.73;;;;;;;0.81;32.67;147529.41;5100663;28;20044;-65
2023/04/15 04:30:11;;;;;;;4.60;1.70;;;;;;;0.94;31.18;147559.91;5091880;28;20249;-64
2023/04/15 04:32:38;;;;;;;1.90;1.70;;;;;;;0.85;31.53;147538.28;5091575;28;20289;-65
2023/04/15 04:35:06;;;;;;;5.13;1.50;;;;;;;1.01;31.41;147577.72;5083919;28;20060;-63
2023/04/15 04:37:32;;;;;;;6.50;1.83;;;;;;;1.22;31.10;147628.66;5083592;28;20218;-64
2023/04/15 04:39:59;;;;;;;1.92;1.67;;;;;;;1.37;31.86;147666.84;5102520;28;20122;-64
2023/04/15 04:42:26;;;;;;;3.78;1.75;;;;;;;1.53;31.38;147707.53;5089685;28;20048;-63
2023/04/15 04:44:53;;;;;;;7.32;2.13;;;;;;;1.15;30.97;147612.09;5093345;28;20051;-64
2023/04/15 04:47:20;;;;;;;2.63;1.73;;;;;;;1.47;31.43;147692.28;5098898;28;20044;-65
2023/04/15 04:49:47;;;;;;;3.28;1.70;;;;;;;1.68;31.27;147743.19;5096956;28;20343;-65
2023/04/15 04:52:14;;;;;;;2.65;1.80;;;;;;;1.89;31.26;147796.66;5099196;28;20059;-65
2023/04/15 04:54:41;;;;;;;3.00;1.70;;;;;;;1.61;30.27;147726.66;5083753;28;20044;-64
2023/04/15 04:57:08;;;;;;;6.03;2.38;;;;;;;1.55;30.66;147712.66;5083864;28;20062;-64
2023/04/15 04:59:35;;;;;;;7.32;2.35;;;;;;;1.62;30.90;147727.91;5083741;28;20055;-64
2023/04/15 05:02:02;;;;;;;2.90;1.98;;;;;;;1.86;31.16;147789.03;5085745;28;20055;-66
2023/04/15 05:04:30;;;;;;;3.17;2.08;;;;;;;1.76;30.26;147763.56;5102331;28;20043;-65
2023/04/15 05:06:58;;;;;;;5.88;2.53;;;;;;;1.63;29.96;147731.75;5103211;28;20071;-65
2023/04/15 05:09:25;;;;;;;7.25;2.70;;;;;;;1.84;30.06;147782.66;5090248;28;20051;-66
2023/04/15 05:11:52;;;;;;;8.35;2.53;;;;;;;1.96;29.76;147811.97;5083242;28;20040;-65
2023/04/15 05:14:19;;;;;;;5.43;2.40;;;;;;;2.32;30.10;147901.13;5087349;28;20059;-67
2023/04/15 05:16:46;;;;;;;3.78;2.20;;;;;;;2.31;30.47;147898.56;5103549;28;20230;-65
2023/04/15 05:19:12;;;;;;;2.40;2.00;;;;;;;2.33;29.79;147903.69;5102329;28;20046;-64
2023/04/15 05:21:39;;;;;;;6.93;2.10;;;;;;;2.68;29.79;147991.59;5087946;28;20048;-65
2023/04/15 05:24:06;;;;;;;6.65;1.90;;;;;;;2.97;30.19;148061.69;5091553;28;20222;-65
2023/04/15 05:26:33;;;;;;;3.40;1.90;;;;;;;2.32;29.28;147902.38;5110800;28;20055;-64
2023/04/15 05:29:00;;;;;;;4.95;2.08;;;;;;;2.18;29.02;147868.00;5082949;28;20264;-66
2023/04/15 05:31:27;;;;;;;6.90;2.20;;;;;;;2.36;29.12;147911.31;5086822;28;20047;-65
2023/04/15 05:33:54;;;;;;;4.90;2.67;;;;;;;2.53;29.66;147954.63;5100420;28;20297;-64
2023/04/15 05:36:21;;;;;;;3.67;1.90;;;;;;;2.62;29.30;147975.00;5090705;28;20044;-65
2023/04/15 05:38:47;;;;;;;4.10;1.70;;;;;;;2.94;28.77;148056.56;5091456;28;20047;-65
2023/04/15 05:41:15;;;;;;;4.78;2.03;;;;;;;2.78;29.24;148014.50;5103090;28;20044;-64
2023/04/15 05:43:42;;;;;;;4.85;2.08;;;;;;;2.81;28.81;148023.44;5103382;28;20043;-64
2023/04/15 05:46:09;;;;;;;2.10;1.60;;;;;;;2.59;28.53;147969.94;5083609;28;20060;-63
2023/04/15 05:48:35;;;;;;;5.13;1.80;;;;;;;2.76;28.50;148010.69;5086737;28;20062;-64
2023/04/15 05:51:03;;;;;;;4.53;1.58;;;;;;;2.32;28.75;147901.13;5103996;28;20058;-62
2023/04/15 05:53:30;;;;;;;4.90;2.08;;;;;;;2.56;28.34;147961.00;5100304;28;20064;-64
2023/04/15 05:55:56;;;;;;;2.90;1.80;;;;;;;2.68;28.58;147991.59;5087164;28;20062;-63
2023/04/15 05:58:23;;;;;;;4.68;1.88;;;;;;;2.57;28.30;147964.81;5086799;28;20273;-66
2023/04/15 06:00:50;;;;;;;3.90;1.83;;;;;;;2.76;28.09;148012.00;5086714;28;20047;-66
2023/04/15 06:03:17;;;;;;;5.93;1.83;;;;;;;2.58;28.14;147967.38;5086587;28;20047;-65
2023/04/15 06:05:44;;;;;;;6.82;1.90;;;;;;;2.98;28.54;148064.22;5094840;28;20054;-66
2023/04/15 06:08:11;;;;;;;5.82;2.20;;;;;;;3.27;28.29;148138.16;5102080;28;20059;-66
2023/04/15 06:10:38;;;;;;;6.78;1.92;;;;;;;2.76;27.83;148010.69;5086579;28;20060;-65
2023/04/15 06:13:05;;;;;;;2.78;1.52;;;;;;;2.82;28.11;148026.00;5095895;28;20040;-65
2023/04/15 06:15:32;;;;;;;5.55;1.80;;;;;;;2.96;27.71;148059.13;5101918;28;20051;-65
2023/04/15 06:17:59;;;;;;;3.42;1.83;;;;;;;3.24;27.30;148130.50;5097357;28;20314;-64
2023/04/15 06:20:26;;;;;;;3.80;1.65;;;;;;;3.47;27.24;148186.59;5091297;28;20055;-66
2023/04/15 06:22:53;;;;;;;3.95;1.80;;;;;;;3.59;27.32;148215.94;5106491;28;20222;-65
2023/04/15 06:25:20;;;;;;;4.70;1.77;;;;;;;3.57;27.67;148212.09;5086865;28;20063;-66
2023/04/15 06:27:47;;;;;;;4.50;1.88;;;;;;;3.39;27.27;148166.19;5102464;28;20139;-65
2023/04/15 06:30:14;;;;;;;6.65;2.72;;;;;;;3.69;27.35;148241.47;5095039;28;20047;-67
2023/04/15 06:32:41;;;;;;;3.92;2.00;;;;;;;3.50;27.47;148193.00;5095716;28;20051;-66
2023/04/15 06:35:08;;;;;;;3.25;1.90;;;;;;;3.21;27.27;148121.59;5086648;28;20056;-65
2023/04/15 06:37:35;;;;;;;4.78;2.35;;;;;;;3.43;27.30;148177.72;5086125;28;20080;-64
2023/04/15 06:40:03;;;;;;;7.30;2.15;;;;;;;3.75;27.21;148255.50;5104734;28;20044;-65
2023/04/15 06:42:31;;;;;;;6.40;2.15;;;;;;;3.73;26.87;148250.38;5092661;28;20048;-66
2023/04/15 06:44:57;;;;;;;3.45;1.90;;;;;;;3.80;26.96;148268.22;5095380;28;20080;-65
2023/04/15 06:47:25;;;;;;;5.95;2.17;;;;;;;4.12;26.76;148347.34;5102035;28;20051;-66
2023/04/15 06:49:51;;;;;;;5.70;2.20;;;;;;;4.29;26.45;148390.72;5085802;28;20067;-65
2023/04/15 06:52:18;;;;;;;5.78;1.98;;;;;;;3.97;25.86;148310.31;5085895;28;20288;-64
2023/04/15 06:54:45;;;;;;;4.25;2.00;;;;;;;3.25;26.92;148133.06;5086481;28;20063;-66
2023/04/15 06:57:12;;;;;;;4.05;1.70;;;;;;;3.96;26.72;148307.75;5095630;28;20268;-64
2023/04/15 06:59:39;;;;;;;4.88;2.38;;;;;;;4.22;26.71;148371.53;5105719;28;20496;-64
2023/04/15 07:02:08;;;;;;;5.15;1.95;;;;;;;4.31;26.06;148394.53;5104266;28;20134;-65
2023/04/15 07:04:34;;;;;;;4.93;2.40;;;;;;;4.38;26.66;148411.13;5085200;28;20048;-66
2023/04/15 07:07:01;;;;;;;4.13;3.17;;;;;;;4.38;25.67;148411.13;5103452;28;20050;-65
2023/04/15 07:09:28;;;;;;;5.55;2.00;;;;;;;4.56;25.89;148455.78;5101170;28;20055;-64
2023/04/15 07:11:55;;;;;;;6.45;2.38;;;;;;;4.00;25.77;148317.97;5085213;28;20256;-64
2023/04/15 07:14:22;;;;;;;6.53;2.20;;;;;;;4.11;25.69;148344.78;5084310;28;20052;-64
2023/04/15 07:16:49;;;;;;;6.18;2.28;;;;;;;4.32;25.79;148397.09;5085880;28;20044;-65
2023/04/15 07:19:16;;;;;;;2.38;1.70;;;;;;;4.35;25.42;148403.44;5085424;28;20051;-64
2023/04/15 07:21:43;;;;;;;5.90;2.70;;;;;;;4.89;24.97;148537.47;5100249;28;20055;-64
2023/04/15 07:24:10;;;;;;;6.80;1.95;;;;;;;4.94;24.56;148550.25;5095439;28;20343;-65
2023/04/15 07:26:36;;;;;;;4.22;1.95;;;;;;;5.12;24.89;148596.22;5090749;28;20059;-66
2023/04/15 07:29:03;;;;;;;5.97;1.88;;;;;;;6.21;24.55;148867.09;5104511;28;20253;-65
2023/04/15 07:31:30;;;;;;;3.17;2.05;;;;;;;6.23;23.83;148870.94;5091565;28;20043;-65
2023/04/15 07:33:57;;;;;;;6.45;2.20;;;;;;;6.11;23.29;148840.25;5088622;28;20056;-65
2023/04/15 07:36:24;;;;;;;6.53;2.28;;;;;;;6.57;23.20;148956.56;5085004;28;20050;-66
2023/04/15 07:38:51;;;;;;;6.25;1.88;;;;;;;6.27;23.42;148881.16;5092373;28;20052;-66
2023/04/15 07:41:19;;;;;;;5.40;2.05;;;;;;;6.61;22.92;148965.47;5102123;28;20051;-66
2023/04/15 07:43:47;;;;;;;4.22;1.85;;;;;;;6.96;22.65;149052.44;5085138;28;20277;-64
2023/04/15 07:46:14;;;;;;;4.38;1.48;;;;;;;6.09;22.16;148835.16;5104417;28;20043;-64
2023/04/15 07:48:41;;;;;;;4.88;2.10;;;;;;;6.00;22.98;148813.38;5095372;28;20044;-65
2023/04/15 07:51:09;;;;;;;3.40;1.88;;;;;;;5.75;23.24;148752.03;5105257;28;20047;-65
2023/04/15 07:53:37;;;;;;;2.83;1.90;;;;;;;5.62;22.76;148718.81;5100043;28;20106;-65
2023/04/15 07:56:04;;;;;;;2.85;1.40;;;;;;;5.91;23.04;148790.38;5084775;28;20050;-65
2023/04/15 07:58:31;;;;;;;3.80;1.70;;;;;;;6.42;22.83;148916.94;5101141;28;20055;-65
2023/04/15 08:00:58;;;;;;;6.95;2.20;;;;;;;6.94;22.58;149047.34;5108510;27;20055;-66
2023/04/15 08:03:25;;;;;;;4.80;1.90;;;;;;;7.20;22.88;149111.28;5092732;28;20055;-66
2023/04/15 08:05:53;;;;;;;2.97;1.80;;;;;;;6.29;22.83;148886.25;5092195;28;20048;-66
2023/04/15 08:08:20;;;;;;;4.55;2.25;;;;;;;6.13;22.61;148845.34;5101568;28;20367;-66
2023/04/15 08:10:46;;;;;;;7.35;2.40;;;;;;;5.96;23.15;148804.41;5084236;28;20331;-65
2023/04/15 08:13:13;;;;;;;3.65;2.00;;;;;;;5.47;23.29;148681.75;5103160;28;20043;-65
2023/04/15 08:15:40;;;;;;;5.63;1.90;;;;;;;5.97;23.10;148805.69;5100026;28;20049;-65
2023/04/15 08:18:07;;;;;;;6.38;2.20;;;;;;;5.82;22.66;148769.91;5084360;28;20052;-67
2023/04/15 08:20:34;;;;;;;4.97;2.10;;;;;;;5.90;22.15;148789.09;5084016;28;20044;-67
2023/04/15 08:23:02;;;;;;;3.58;2.22;;;;;;;6.26;22.77;148878.59;5084344;28;20246;-66
2023/04/15 08:25:29;;;;;;;2.92;2.00;;;;;;;6.20;22.40;148863.28;5084092;28;20048;-65
2023/04/15 08:27:59;;;;;;;5.18;1.80;;;;;;;6.37;22.71;148906.72;5084372;28;20048;-65
2023/04/15 08:30:26;;;;;;;4.20;2.10;;;;;;;5.67;22.38;148732.88;5084394;28;20036;-66
2023/04/15 08:32:53;;;;;;;3.60;2.10;;;;;;;6.15;22.15;148850.47;5094195;28;20044;-65
2023/04/15 08:35:21;;;;;;;7.15;2.10;;;;;;;6.14;22.55;148847.91;5083837;28;20056;-64
2023/04/15 08:37:47;;;;;;;8.00;2.35;;;;;;;6.36;21.94;148904.13;5083864;28;20044;-65
2023/04/15 08:40:15;;;;;;;5.45;2.00;;;;;;;5.98;22.17;148809.56;5083705;28;20349;-65
2023/04/15 08:42:45;;;;;;;4.63;2.33;;;;;;;6.02;22.45;148818.53;5098171;28;20047;-65
2023/04/15 08:45:13;;;;;;;3.30;1.70;;;;;;;5.98;21.23;148808.28;5094219;28;20253;-66
2023/04/15 08:47:42;;;;;;;5.03;2.00;;;;;;;6.28;20.72;148883.69;5089607;28;20039;-65
2023/04/15 08:50:10;;;;;;;6.13;2.38;;;;;;;6.46;21.42;148928.44;5087046;28;20317;-65
2023/04/15 08:52:38;;;;;;;3.30;1.90;;;;;;;6.43;21.33;148919.47;5083738;28;20086;-66
2023/04/15 08:55:08;;;;;;;4.03;2.10;;;;;;;7.00;21.19;149061.44;5086091;28;20048;-66
2023/04/15 08:57:36;;;;;;;6.13;2.20;;;;;;;7.34;20.56;149147.09;5096857;28;20047;-66
2023/04/15 09:00:05;;;;;;;6.72;2.35;;;;;;;6.59;21.10;148959.13;5095211;28;20044;-65
2023/04/15 09:02:32;;;;;;;7.78;2.90;;;;;;;6.87;21.82;149030.72;5083012;28;20067;-66
2023/04/15 09:04:59;;;;;;;5.50;1.98;;;;;;;7.51;20.84;149188.00;5083679;28;20092;-66
2023/04/15 09:07:26;;;;;;;3.78;2.20;;;;;;;7.07;21.28;149080.59;5084751;28;20040;-66
2023/04/15 09:09:53;;;;;;;2.78;2.10;;;;;;;6.63;21.06;148970.63;5099016;28;20079;-67
2023/04/15 09:12:20;;;;;;;7.40;2.20;;;;;;;6.75;21.29;149000.00;5098933;28;20063;-66
2023/04/15 09:14:48;;;;;;;3.00;1.95;;;;;;;6.19;21.50;148861.97;5083546;28;20051;-66
2023/04/15 09:17:19;;;;;;;5.03;2.25;;;;;;;6.62;21.29;148966.78;5084772;28;20238;-66
2023/04/15 09:19:46;;;;;;;4.97;1.85;;;;;;;7.06;21.47;149078.00;5103392;28;20232;-64
2023/04/15 09:22:14;;;;;;;6.32;2.60;;;;;;;7.43;21.09;149168.84;5085724;28;20051;-67
2023/04/15 09:24:42;;;;;;;4.63;2.60;;;;;;;6.94;20.54;149047.34;5096918;28;20039;-65
2023/04/15 09:27:09;;;;;;;3.95;2.22;;;;;;;6.88;20.74;149033.28;5093623;28;20048;-68
2023/04/15 09:29:36;;;;;;;8.60;2.58;;;;;;;7.07;21.30;149080.59;5087549;28;20051;-67
2023/04/15 09:32:13;;;;;;;4.78;1.88;;;;;;;6.41;21.47;148915.63;5092770;28;20059;-66
2023/04/15 09:34:40;;;;;;;5.25;2.00;;;;;;;6.71;21.21;148991.09;5082939;28;20045;-67
2023/04/15 09:37:09;;;;;;;7.35;2.35;;;;;;;6.48;21.90;148933.53;5100297;28;20066;-66
2023/04/15 09:39:50;;;;;;;13.80;7.72;;;;;;;6.74;21.20;148997.44;5090992;28;20056;-66
2023/04/15 09:42:23;;;;;;;4.93;2.50;;;;;;;6.72;20.31;148993.63;5093320;28;20047;-65
2023/04/15 09:44:53;;;;;;;5.53;2.55;;;;;;;7.14;20.93;149097.22;5096990;28;20258;-65
2023/04/15 09:47:31;;;;;;;6.82;2.55;;;;;;;7.42;19.75;149166.28;5085112;28;20055;-68
2023/04/15 09:49:59;;;;;;;5.97;2.25;;;;;;;7.21;19.92;149113.81;5088108;28;20048;-66
2023/04/15 09:52:26;;;;;;;4.00;2.17;;;;;;;6.85;20.67;149024.31;5083041;28;20074;-66
2023/04/15 09:54:55;;;;;;;6.15;2.25;;;;;;;6.93;20.59;149044.78;5098192;28;20044;-65
2023/04/15 09:57:22;;;;;;;6.63;2.45;;;;;;;6.97;20.47;149053.72;5092538;28;20048;-65
2023/04/15 09:59:50;;;;;;;4.63;3.10;;;;;;;7.21;20.09;149113.81;5089123;28;20047;-65
2023/04/15 10:02:21;;;;;;;3.45;2.10;;;;;;;7.17;19.99;149103.59;5099971;28;20246;-64
2023/04/15 10:04:49;;;;;;;4.45;2.47;;;;;;;7.21;19.44;149113.81;5083031;28;20055;-66
2023/04/15 10:07:19;;;;;;;2.75;2.08;;;;;;;7.06;19.48;149076.75;5101253;28;20320;-65
2023/04/15 10:09:48;;;;;;;5.82;2.15;;;;;;;7.10;19.76;149087.00;5088953;28;20083;-66
2023/04/15 10:12:19;;;;;;;10.20;2.25;;;;;;;7.17;20.01;149103.59;5092534;28;20047;-65
2023/04/15 10:14:58;;;;;;;3.97;2.40;;;;;;;7.29;20.12;149133.03;5097578;28;20050;-65
2023/04/15 10:17:32;;;;;;;2.97;2.35;;;;;;;7.82;20.31;149266.06;5085345;28;20456;-66
2023/04/15 10:20:01;;;;;;;8.75;2.70;;;;;;;8.06;20.24;149326.22;5103132;28;20240;-65
2023/04/15 10:22:29;;;;;;;7.43;4.10;;;;;;;8.17;19.96;149351.84;5102504;28;20044;-65
2023/04/15 10:24:56;;;;;;;6.38;2.30;;;;;;;8.21;19.66;149363.38;5102816;28;20052;-66
2023/04/15 10:27:23;;;;;;;4.88;2.40;;;;;;;7.77;19.01;149254.56;5091899;28;20055;-65
2023/04/15 10:29:50;;;;;;;7.30;2.60;;;;;;;8.13;18.97;149342.88;5088604;28;20229;-66
2023/04/15 10:32:20;;;;;;;6.00;2.28;;;;;;;8.12;18.76;149340.28;5092192;28;20134;-67
2023/04/15 10:34:50;;;;;;;4.68;2.25;;;;;;;7.77;19.48;149254.56;5103748;28;20051;-65
2023/04/15 10:37:21;;;;;;;3.53;2.00;;;;;;;8.13;20.28;149344.13;5085959;28;20040;-65
2023/04/15 10:39:49;;;;;;;3.65;2.30;;;;;;;8.35;19.63;149396.63;5100543;28;20048;-66
2023/04/15 10:42:18;;;;;;;3.78;2.00;;;;;;;7.85;19.90;149272.47;5106397;28;20048;-65
2023/04/15 10:44:50;;;;;;;4.28;2.10;;;;;;;7.81;19.07;149262.22;5101726;28;20275;-66
2023/04/15 10:47:20;;;;;;;4.50;2.40;;;;;;;8.02;20.15;149315.97;5086074;28;20059;-66
2023/04/15 10:49:49;;;;;;;3.65;2.00;;;;;;;8.02;19.02;149315.97;5085752;28;20270;-66
2023/04/15 10:52:21;;;;;;;4.78;2.42;;;;;;;8.26;19.30;149374.88;5085653;28;20067;-65
2023/04/15 10:54:48;;;;;;;12.73;2.47;;;;;;;8.29;19.65;149382.53;5099460;28;20040;-66
2023/04/15 10:57:24;;;;;;;2.70;2.13;;;;;;;8.46;20.22;149426.16;5097131;28;20252;-65
2023/04/15 11:00:03;;;;;;;7.50;2.75;;;;;;;8.70;19.70;149483.75;5091863;28;20044;-65
2023/04/15 11:02:52;;;;;;;6.30;2.08;;;;;;;8.91;19.59;149536.28;5103150;28;20071;-65
2023/04/15 11:05:22;;;;;;;2.88;2.33;;;;;;;8.67;19.44;149477.34;5086095;28;20044;-66
2023/04/15 11:07:57;;;;;;;3.10;2.47;;;;;;;8.88;18.91;149528.56;5085314;28;20044;-67
2023/04/15 11:10:30;;;;;;;5.47;2.38;;;;;;;8.31;19.17;149387.69;5104118;28;20036;-66
2023/04/15 11:13:01;;;;;;;4.05;2.38;;;;;;;8.65;19.37;149472.25;5091142;28;20052;-66
2023/04/15 11:15:29;;;;;;;5.57;2.72;;;;;;;8.80;19.97;149510.63;5096259;28;20151;-66
2023/04/15 11:18:15;;;;;;;3.58;2.58;;;;;;;8.69;19.16;149481.19;5101660;28;20055;-65
2023/04/15 11:20:44;;;;;;;7.85;2.65;;;;;;;9.17;20.17;149600.31;5122085;28;20040;-66
2023/04/15 11:23:11;;;;;;;4.30;2.20;;;;;;;8.57;19.67;149451.75;5105242;28;20054;-66
2023/04/15 11:25:38;;;;;;;5.30;2.70;;;;;;;8.98;19.21;149554.22;5084931;28;20120;-65
2023/04/15 11:28:06;;;;;;;5.75;2.85;;;;;;;8.88;18.66;149529.88;5085024;28;20047;-65
2023/04/15 11:30:35;;;;;;;6.22;2.53;;;;;;;9.03;19.62;149567.00;5096512;28;20043;-65
2023/04/15 11:33:05;;;;;;;4.95;2.75;;;;;;;9.12;19.25;149590.06;5085980;28;20048;-66
2023/04/15 11:35:32;;;;;;;4.57;2.78;;;;;;;9.05;18.88;149572.13;5087574;28;20333;-65